Time;durP1;ratioP1;P1;durP2;ratioP2;P2;SDS_P1;SDS_P2;PMS_P1;PMS_P2;Temp;Humidity;BMP_temperature;BMP_pressure;BME280_temperature;BME280_humidity;BME280_pressure;Samples;Min_cycle;Max_cycle;Signal;HPM_P1;HPM_P2
2023/10/29 00:02:27;;;;;;;9.85;4.30;;;;;;;;;;10368425;28;20026;-64
2023/10/29 00:07:28;;;;;;;13.23;4.47;;;;;;;;;;10366889;28;20026;-67
2023/10/29 00:12:29;;;;;;;10.20;4.75;;;;;;;;;;10368906;28;20092;-65
2023/10/29 00:17:29;;;;;;;8.43;4.65;;;;;;;;;;10353903;28;20037;-66
2023/10/29 00:22:30;;;;;;;8.95;4.78;;;;;;;;;;10367024;28;20034;-66
2023/10/29 00:27:30;;;;;;;9.05;4.68;;;;;;;;;;10368644;28;20383;-64
2023/10/29 00:32:31;;;;;;;13.13;5.00;;;;;;;;;;10366325;28;20616;-67
2023/10/29 00:37:31;;;;;;;10.18;4.82;;;;;;;;;;10364414;28;20490;-61
2023/10/29 00:42:33;;;;;;;10.27;4.80;;;;;;;;;;10357656;28;20193;-63
2023/10/29 00:47:34;;;;;;;7.93;4.90;;;;;;;;;;10366422;28;20032;-64
2023/10/29 00:52:35;;;;;;;7.75;5.05;;;;;;;;;;10354643;28;20022;-60
2023/10/29 00:57:37;;;;;;;8.10;4.93;;;;;;;;;;10346916;28;20042;-64
2023/10/29 01:02:37;;;;;;;9.68;5.13;;;;;;;;;;10366327;28;20041;-69
2023/10/29 01:07:38;;;;;;;7.07;4.53;;;;;;;;;;10367250;28;20034;-62
2023/10/29 01:12:39;;;;;;;6.97;4.80;;;;;;;;;;10361456;28;20073;-60
2023/10/29 01:17:41;;;;;;;9.50;5.35;;;;;;;;;;10360372;28;20034;-59
2023/10/29 01:22:41;;;;;;;11.38;5.35;;;;;;;;;;10362967;28;20033;-61
2023/10/29 01:27:42;;;;;;;6.55;5.07;;;;;;;;;;10364820;28;20034;-59
2023/10/29 01:32:43;;;;;;;11.38;5.18;;;;;;;;;;10366972;28;20037;-59
2023/10/29 01:37:44;;;;;;;8.35;4.57;;;;;;;;;;10363758;28;20026;-59
2023/10/29 01:42:45;;;;;;;9.93;5.22;;;;;;;;;;10360868;28;20132;-59
2023/10/29 01:47:46;;;;;;;9.55;4.70;;;;;;;;;;10352692;28;20450;-59
2023/10/29 01:52:47;;;;;;;7.28;4.43;;;;;;;;;;10362816;28;20030;-61
2023/10/29 01:57:48;;;;;;;7.65;4.82;;;;;;;;;;10347946;28;20046;-62
2023/10/29 02:02:50;;;;;;;6.75;4.32;;;;;;;;;;10366022;28;20030;-59
2023/10/29 02:07:50;;;;;;;6.38;3.92;;;;;;;;;;10362176;28;20497;-60
2023/10/29 02:12:51;;;;;;;7.63;4.63;;;;;;;;;;10352467;28;20042;-60
2023/10/29 02:17:52;;;;;;;8.13;4.40;;;;;;;;;;10354782;28;20053;-59
2023/10/29 02:22:52;;;;;;;7.80;4.13;;;;;;;;;;10367847;28;20022;-60
2023/10/29 02:27:53;;;;;;;6.38;4.43;;;;;;;;;;10370569;28;20878;-60
2023/10/29 02:32:53;;;;;;;8.07;4.05;;;;;;;;;;10372997;28;20038;-60
2023/10/29 02:37:54;;;;;;;5.57;4.03;;;;;;;;;;10373827;28;20067;-60
2023/10/29 02:42:55;;;;;;;6.32;4.07;;;;;;;;;;10361125;28;20025;-70
2023/10/29 02:47:55;;;;;;;7.30;4.40;;;;;;;;;;10373029;28;20041;-59
2023/10/29 02:52:56;;;;;;;7.78;3.70;;;;;;;;;;10371287;28;20030;-59
2023/10/29 02:57:56;;;;;;;5.97;3.83;;;;;;;;;;10372481;28;20025;-60
2023/10/29 03:02:57;;;;;;;5.63;3.50;;;;;;;;;;10368742;28;20597;-64
2023/10/29 03:07:59;;;;;;;7.68;3.42;;;;;;;;;;10362068;28;20072;-63
2023/10/29 03:13:00;;;;;;;6.95;3.63;;;;;;;;;;10368542;28;20498;-60
2023/10/29 03:18:00;;;;;;;5.97;3.63;;;;;;;;;;10368414;28;20030;-60
2023/10/29 03:23:01;;;;;;;4.72;3.17;;;;;;;;;;10366410;28;20033;-59
2023/10/29 03:28:02;;;;;;;4.75;3.20;;;;;;;;;;10353227;28;20034;-61
2023/10/29 03:33:02;;;;;;;5.85;3.15;;;;;;;;;;10370702;28;20030;-63
2023/10/29 03:38:03;;;;;;;5.03;3.13;;;;;;;;;;10366918;28;20042;-66
2023/10/29 03:43:03;;;;;;;4.55;2.53;;;;;;;;;;10347270;28;20088;-65
2023/10/29 03:48:04;;;;;;;4.55;3.03;;;;;;;;;;10351822;28;20030;-68
2023/10/29 03:53:05;;;;;;;4.53;2.85;;;;;;;;;;10369543;28;20060;-67
2023/10/29 03:58:05;;;;;;;7.55;3.00;;;;;;;;;;10366927;28;20041;-65
2023/10/29 04:03:06;;;;;;;4.55;2.85;;;;;;;;;;10369763;28;20508;-62
2023/10/29 04:08:07;;;;;;;5.28;2.50;;;;;;;;;;10366404;28;20034;-66
2023/10/29 04:13:07;;;;;;;4.60;2.50;;;;;;;;;;10368493;28;20042;-58
2023/10/29 04:18:08;;;;;;;5.30;2.42;;;;;;;;;;10368225;28;20034;-61
2023/10/29 04:23:08;;;;;;;4.63;2.90;;;;;;;;;;10359546;28;20049;-63
2023/10/29 04:28:10;;;;;;;5.65;2.75;;;;;;;;;;10364130;28;20048;-66
2023/10/29 04:33:10;;;;;;;6.25;2.70;;;;;;;;;;10357282;28;20034;-67
2023/10/29 04:38:11;;;;;;;6.05;2.40;;;;;;;;;;10357836;28;20092;-59
2023/10/29 04:43:11;;;;;;;3.60;2.72;;;;;;;;;;10367950;28;20101;-59
2023/10/29 04:48:12;;;;;;;6.85;2.60;;;;;;;;;;10367990;28;20099;-59
2023/10/29 04:53:12;;;;;;;2.53;2.25;;;;;;;;;;10365890;28;20029;-58
2023/10/29 04:58:13;;;;;;;4.18;2.45;;;;;;;;;;10367403;28;20037;-58
2023/10/29 05:03:14;;;;;;;2.53;2.13;;;;;;;;;;10365279;28;20093;-67
2023/10/29 05:08:14;;;;;;;4.97;2.65;;;;;;;;;;10355725;28;20032;-58
2023/10/29 05:13:15;;;;;;;3.03;2.20;;;;;;;;;;10368390;28;20053;-59
2023/10/29 05:18:15;;;;;;;3.78;2.33;;;;;;;;;;10354950;28;20498;-58
2023/10/29 05:23:16;;;;;;;3.70;2.28;;;;;;;;;;10365936;28;20569;-65
2023/10/29 05:28:16;;;;;;;2.63;2.40;;;;;;;;;;10360569;28;20368;-58
2023/10/29 05:33:17;;;;;;;4.05;2.47;;;;;;;;;;10357944;28;20448;-58
2023/10/29 05:38:17;;;;;;;3.22;2.45;;;;;;;;;;10358264;28;20088;-57
2023/10/29 05:43:18;;;;;;;3.60;2.15;;;;;;;;;;10354112;28;20033;-58
2023/10/29 05:48:19;;;;;;;5.95;2.40;;;;;;;;;;10374304;28;20036;-58
2023/10/29 05:53:19;;;;;;;3.92;2.20;;;;;;;;;;10367907;28;20022;-55
2023/10/29 05:58:20;;;;;;;4.90;2.40;;;;;;;;;;10365215;28;20030;-59
2023/10/29 06:03:20;;;;;;;3.85;2.22;;;;;;;;;;10367673;28;20029;-59
2023/10/29 06:08:21;;;;;;;2.90;2.30;;;;;;;;;;10374796;28;20026;-59
2023/10/29 06:13:22;;;;;;;2.78;2.22;;;;;;;;;;10369980;28;20045;-62
2023/10/29 06:18:23;;;;;;;3.15;1.77;;;;;;;;;;10364693;28;20037;-58
2023/10/29 06:23:23;;;;;;;2.30;2.10;;;;;;;;;;10374829;28;20052;-65
2023/10/29 06:28:24;;;;;;;2.78;2.10;;;;;;;;;;10371685;28;20034;-58
2023/10/29 06:33:24;;;;;;;1.77;1.63;;;;;;;;;;10363054;28;20446;-58
2023/10/29 06:38:25;;;;;;;2.05;1.80;;;;;;;;;;10362228;28;20382;-58
2023/10/29 06:43:26;;;;;;;2.72;1.80;;;;;;;;;;10371194;28;20030;-70
2023/10/29 06:48:27;;;;;;;5.35;2.38;;;;;;;;;;10355691;28;20038;-71
2023/10/29 06:53:27;;;;;;;3.08;2.08;;;;;;;;;;10369961;28;20540;-73
2023/10/29 06:58:28;;;;;;;3.10;2.00;;;;;;;;;;10364592;28;20592;-72
2023/10/29 07:03:29;;;;;;;2.13;1.92;;;;;;;;;;10360160;28;20109;-73
2023/10/29 07:08:29;;;;;;;2.25;1.83;;;;;;;;;;10360490;28;20401;-72
2023/10/29 07:13:31;;;;;;;5.55;1.95;;;;;;;;;;10370711;28;20120;-73
2023/10/29 07:18:32;;;;;;;2.78;2.05;;;;;;;;;;10367866;28;20080;-55
2023/10/29 07:23:32;;;;;;;2.15;1.90;;;;;;;;;;10368761;28;20032;-54
2023/10/29 07:28:34;;;;;;;3.10;1.98;;;;;;;;;;10368505;28;20522;-58
2023/10/29 07:33:35;;;;;;;6.07;1.55;;;;;;;;;;10359806;28;20034;-58
2023/10/29 07:38:35;;;;;;;2.40;1.73;;;;;;;;;;10346138;28;20042;-58
2023/10/29 07:43:36;;;;;;;3.15;1.58;;;;;;;;;;10358399;28;20026;-60
2023/10/29 07:48:37;;;;;;;3.05;2.00;;;;;;;;;;10363291;28;20025;-58
2023/10/29 07:53:37;;;;;;;2.78;1.70;;;;;;;;;;10361374;28;20018;-59
2023/10/29 07:58:38;;;;;;;3.70;1.98;;;;;;;;;;10351543;28;20044;-58
2023/10/29 08:03:40;;;;;;;5.78;1.88;;;;;;;;;;10352240;28;20513;-58
2023/10/29 08:08:40;;;;;;;2.20;1.85;;;;;;;;;;10359584;28;20103;-57
2023/10/29 08:13:41;;;;;;;2.53;1.80;;;;;;;;;;10366665;28;20124;-59
2023/10/29 08:18:41;;;;;;;3.17;2.05;;;;;;;;;;10364287;28;20037;-58
2023/10/29 08:23:42;;;;;;;2.97;1.60;;;;;;;;;;10367635;28;20034;-68
2023/10/29 08:28:43;;;;;;;4.22;1.50;;;;;;;;;;10350652;28;20034;-70
2023/10/29 08:33:44;;;;;;;2.88;1.70;;;;;;;;;;10367826;28;20064;-71
2023/10/29 08:38:45;;;;;;;1.67;1.58;;;;;;;;;;10358233;28;20042;-69
2023/10/29 08:43:46;;;;;;;4.93;1.80;;;;;;;;;;10367825;28;20030;-70
2023/10/29 08:48:46;;;;;;;4.40;2.00;;;;;;;;;;10357199;28;20530;-68
2023/10/29 08:53:47;;;;;;;12.77;2.30;;;;;;;;;;10367845;28;20148;-63
2023/10/29 08:58:48;;;;;;;3.75;2.20;;;;;;;;;;10355740;28;20037;-65
2023/10/29 09:03:48;;;;;;;5.68;2.10;;;;;;;;;;10363719;28;20025;-66
2023/10/29 09:08:49;;;;;;;3.25;1.80;;;;;;;;;;10367348;28;20029;-67
2023/10/29 09:13:50;;;;;;;4.90;2.10;;;;;;;;;;10364026;28;20041;-60
2023/10/29 09:18:50;;;;;;;9.07;1.90;;;;;;;;;;10366479;28;20036;-66
2023/10/29 09:23:51;;;;;;;8.55;2.58;;;;;;;;;;10365659;28;20037;-67
2023/10/29 09:28:52;;;;;;;4.50;2.25;;;;;;;;;;10363572;28;20038;-57
2023/10/29 09:33:52;;;;;;;7.32;2.33;;;;;;;;;;10355403;28;20038;-55
2023/10/29 09:38:53;;;;;;;5.35;2.45;;;;;;;;;;10369029;28;20390;-54
2023/10/29 09:43:53;;;;;;;2.40;2.00;;;;;;;;;;10369355;28;20498;-54
2023/10/29 09:48:54;;;;;;;7.10;2.20;;;;;;;;;;10374065;28;20068;-55
2023/10/29 09:53:57;;;;;;;9.02;2.40;;;;;;;;;;10374806;28;20033;-56
2023/10/29 09:58:59;;;;;;;5.60;2.30;;;;;;;;;;10370099;28;20374;-61
2023/10/29 10:03:59;;;;;;;7.93;2.22;;;;;;;;;;10375720;28;20033;-58
2023/10/29 10:09:00;;;;;;;3.35;1.90;;;;;;;;;;10372764;28;20466;-59
2023/10/29 10:14:01;;;;;;;5.15;2.40;;;;;;;;;;10359048;28;20557;-62
2023/10/29 10:19:01;;;;;;;5.50;2.40;;;;;;;;;;10362255;28;20030;-63
2023/10/29 10:24:02;;;;;;;2.83;2.00;;;;;;;;;;10365714;28;20045;-65
2023/10/29 10:29:07;;;;;;;9.48;2.20;;;;;;;;;;10368794;28;20029;-59
2023/10/29 10:34:17;;;;;;;3.45;2.00;;;;;;;;;;10362806;28;20469;-57
2023/10/29 10:39:25;;;;;;;8.27;2.47;;;;;;;;;;10369899;28;20069;-62
2023/10/29 10:44:30;;;;;;;7.07;2.57;;;;;;;;;;10371319;28;20678;-63
2023/10/29 10:49:32;;;;;;;10.57;2.33;;;;;;;;;;10363888;28;20162;-64
2023/10/29 10:54:33;;;;;;;2.50;2.10;;;;;;;;;;10365219;28;20022;-63
2023/10/29 10:59:35;;;;;;;3.75;2.22;;;;;;;;;;10358350;28;20042;-61
2023/10/29 11:04:36;;;;;;;4.85;2.47;;;;;;;;;;10360604;28;20030;-59
2023/10/29 11:09:37;;;;;;;5.15;2.35;;;;;;;;;;10354755;28;20030;-63
2023/10/29 11:14:37;;;;;;;6.15;2.55;;;;;;;;;;10345214;28;20034;-62
2023/10/29 11:19:44;;;;;;;6.45;2.38;;;;;;;;;;10357774;28;20037;-59
2023/10/29 11:25:11;;;;;;;2.85;2.22;;;;;;;;;;10363311;28;20088;-58
2023/10/29 11:30:28;;;;;;;5.47;2.43;;;;;;;;;;10345049;28;20486;-59
2023/10/29 11:35:29;;;;;;;5.65;2.80;;;;;;;;;;10365234;28;20394;-58
2023/10/29 11:40:34;;;;;;;4.70;2.50;;;;;;;;;;10367673;28;20494;-60
2023/10/29 11:45:35;;;;;;;3.97;2.97;;;;;;;;;;10352476;28;20113;-62
2023/10/29 11:50:40;;;;;;;3.47;2.75;;;;;;;;;;10385147;23;20137;-63
2023/10/29 11:55:46;;;;;;;4.75;2.88;;;;;;;;;;10363161;28;20034;-63
2023/10/29 12:00:47;;;;;;;4.25;2.38;;;;;;;;;;10363580;28;20041;-63
2023/10/29 12:05:57;;;;;;;3.42;2.65;;;;;;;;;;10352930;28;20492;-63
2023/10/29 12:11:27;;;;;;;5.30;3.08;;;;;;;;;;10335566;28;20042;-65
2023/10/29 12:16:28;;;;;;;4.80;3.17;;;;;;;;;;10344470;28;20026;-65
2023/10/29 12:21:29;;;;;;;3.72;2.42;;;;;;;;;;10370582;28;20591;-64
2023/10/29 12:26:30;;;;;;;6.35;2.58;;;;;;;;;;10355819;28;20046;-64
2023/10/29 12:31:31;;;;;;;6.03;2.80;;;;;;;;;;10360415;28;20616;-64
2023/10/29 12:36:32;;;;;;;4.65;2.28;;;;;;;;;;10360265;28;20053;-63
2023/10/29 12:41:32;;;;;;;3.15;2.58;;;;;;;;;;10356993;28;20044;-61
2023/10/29 12:46:33;;;;;;;3.67;2.47;;;;;;;;;;10361686;28;20046;-62
2023/10/29 12:51:37;;;;;;;4.13;2.38;;;;;;;;;;10359873;28;20042;-64
2023/10/29 12:56:58;;;;;;;8.25;2.47;;;;;;;;;;10360390;28;20034;-64
2023/10/29 13:02:05;;;;;;;3.58;2.65;;;;;;;;;;10362705;28;20401;-64
2023/10/29 13:07:08;;;;;;;8.30;2.35;;;;;;;;;;10357059;28;20049;-64
2023/10/29 13:12:10;;;;;;;6.93;2.85;;;;;;;;;;10361275;28;20029;-64
2023/10/29 13:17:12;;;;;;;7.68;2.97;;;;;;;;;;10374891;28;20026;-64
2023/10/29 13:22:12;;;;;;;8.10;3.20;;;;;;;;;;10346713;28;20117;-64
2023/10/29 13:27:13;;;;;;;4.00;2.67;;;;;;;;;;10362137;28;20409;-64
2023/10/29 13:32:15;;;;;;;6.18;2.83;;;;;;;;;;10362564;28;20029;-64
2023/10/29 13:37:16;;;;;;;3.17;2.30;;;;;;;;;;10361775;28;20037;-64
2023/10/29 13:42:18;;;;;;;4.95;2.97;;;;;;;;;;10356526;28;20018;-64
2023/10/29 13:47:19;;;;;;;4.47;2.53;;;;;;;;;;10356797;28;20054;-64
2023/10/29 13:52:19;;;;;;;3.72;2.60;;;;;;;;;;10356762;28;20045;-64
2023/10/29 13:57:20;;;;;;;5.15;2.15;;;;;;;;;;10372094;28;20042;-66
2023/10/29 14:02:21;;;;;;;3.58;2.38;;;;;;;;;;10374768;28;20069;-63
2023/10/29 14:07:21;;;;;;;4.15;2.17;;;;;;;;;;10368780;28;20540;-63
2023/10/29 14:12:22;;;;;;;2.20;2.03;;;;;;;;;;10363434;28;20025;-61
2023/10/29 14:17:23;;;;;;;4.15;2.33;;;;;;;;;;10368118;28;20105;-62
2023/10/29 14:22:23;;;;;;;5.60;2.38;;;;;;;;;;10346732;28;20034;-64
2023/10/29 14:27:24;;;;;;;4.72;2.58;;;;;;;;;;10362283;28;20030;-64
2023/10/29 14:32:25;;;;;;;7.80;2.45;;;;;;;;;;10340796;28;20022;-61
2023/10/29 14:37:25;;;;;;;3.47;2.25;;;;;;;;;;10335324;28;20049;-59
2023/10/29 14:42:28;;;;;;;4.90;2.25;;;;;;;;;;10350618;28;20023;-59
2023/10/29 14:47:29;;;;;;;5.03;2.88;;;;;;;;;;10368976;28;20489;-61
2023/10/29 14:52:30;;;;;;;10.13;2.35;;;;;;;;;;10365150;28;20038;-60
2023/10/29 14:57:31;;;;;;;10.45;2.30;;;;;;;;;;10368157;28;20038;-62
2023/10/29 15:02:35;;;;;;;4.35;2.22;;;;;;;;;;10366141;28;20500;-62
2023/10/29 15:07:35;;;;;;;3.42;2.20;;;;;;;;;;10361982;28;20050;-59
2023/10/29 15:12:36;;;;;;;3.63;2.33;;;;;;;;;;10362012;28;20156;-63
2023/10/29 15:17:36;;;;;;;7.25;2.47;;;;;;;;;;10354107;28;20304;-61
2023/10/29 15:22:37;;;;;;;5.45;2.08;;;;;;;;;;10352950;28;20037;-60
2023/10/29 15:27:38;;;;;;;4.30;2.40;;;;;;;;;;10355085;28;20401;-60
2023/10/29 15:32:38;;;;;;;2.40;1.90;;;;;;;;;;10367465;28;20037;-62
2023/10/29 15:37:40;;;;;;;4.00;2.15;;;;;;;;;;10362691;28;20032;-61
2023/10/29 15:42:41;;;;;;;12.45;2.05;;;;;;;;;;10361069;28;20165;-64
2023/10/29 15:47:42;;;;;;;4.93;2.30;;;;;;;;;;10355372;28;20029;-64
2023/10/29 15:52:42;;;;;;;3.35;1.83;;;;;;;;;;10352453;28;20041;-63
2023/10/29 15:57:43;;;;;;;10.45;2.38;;;;;;;;;;10360049;28;20044;-61
2023/10/29 16:02:44;;;;;;;4.72;2.15;;;;;;;;;;10361662;28;20482;-64
2023/10/29 16:07:45;;;;;;;4.30;1.90;;;;;;;;;;10355740;28;20029;-64
2023/10/29 16:12:46;;;;;;;5.07;1.98;;;;;;;;;;10365736;28;20029;-63
2023/10/29 16:17:46;;;;;;;4.57;2.20;;;;;;;;;;10350341;28;20028;-63
2023/10/29 16:22:47;;;;;;;2.53;1.92;;;;;;;;;;10361688;28;20037;-62
2023/10/29 16:27:47;;;;;;;5.18;2.08;;;;;;;;;;10364489;28;20022;-61
2023/10/29 16:32:48;;;;;;;3.47;2.20;;;;;;;;;;10365726;28;20117;-62
2023/10/29 16:37:50;;;;;;;3.22;2.38;;;;;;;;;;10341590;28;20046;-55
2023/10/29 17:49:10;;;;;;;11.23;2.67;;;;;;;;;;10327777;27;20789;-63
2023/10/29 17:54:11;;;;;;;7.25;3.03;;;;;;;;;;10432986;28;20037;-63
2023/10/29 17:59:12;;;;;;;12.38;3.63;;;;;;;;;;10429682;28;20051;-63
2023/10/29 18:04:14;;;;;;;10.27;3.10;;;;;;;;;;10433004;28;20049;-63
2023/10/29 18:09:14;;;;;;;5.50;2.80;;;;;;;;;;10418566;28;20105;-64
2023/10/29 18:14:15;;;;;;;12.38;3.08;;;;;;;;;;10419453;28;20021;-66
2023/10/29 18:19:16;;;;;;;9.60;3.15;;;;;;;;;;10406029;28;20052;-64
2023/10/29 18:24:20;;;;;;;8.45;3.03;;;;;;;;;;10419564;28;20052;-70
2023/10/29 18:29:22;;;;;;;8.15;3.20;;;;;;;;;;10431546;28;20103;-69
2023/10/29 18:34:23;;;;;;;6.68;2.60;;;;;;;;;;10437519;28;20033;-65
2023/10/29 18:39:24;;;;;;;5.13;2.78;;;;;;;;;;10428485;28;20037;-65
2023/10/29 18:44:29;;;;;;;9.15;3.13;;;;;;;;;;10414007;28;20037;-64
2023/10/29 18:49:30;;;;;;;7.30;3.03;;;;;;;;;;10413927;28;20026;-63
2023/10/29 18:54:32;;;;;;;6.53;2.45;;;;;;;;;;10417439;28;20022;-65
2023/10/29 18:59:35;;;;;;;11.70;2.95;;;;;;;;;;10394072;28;20043;-63
2023/10/29 19:04:36;;;;;;;12.52;2.63;;;;;;;;;;10386655;28;20248;-63
2023/10/29 19:09:36;;;;;;;12.88;3.05;;;;;;;;;;10386176;28;20435;-63
2023/10/29 19:14:41;;;;;;;5.63;2.63;;;;;;;;;;10405653;28;20034;-63
2023/10/29 19:19:42;;;;;;;7.35;3.30;;;;;;;;;;10394286;28;20022;-62
2023/10/29 19:24:43;;;;;;;5.53;3.10;;;;;;;;;;10374694;28;20021;-63
2023/10/29 19:29:44;;;;;;;10.48;3.30;;;;;;;;;;10387834;28;20060;-63
2023/10/29 19:34:45;;;;;;;7.25;3.28;;;;;;;;;;10393943;28;20029;-64
2023/10/29 19:39:46;;;;;;;7.43;3.40;;;;;;;;;;10394203;28;20441;-66
2023/10/29 19:44:47;;;;;;;7.47;3.63;;;;;;;;;;10413089;28;20072;-63
2023/10/29 19:49:49;;;;;;;5.70;3.20;;;;;;;;;;10400133;28;20029;-63
2023/10/29 19:54:55;;;;;;;7.13;3.83;;;;;;;;;;10397589;28;20465;-64
2023/10/29 19:59:57;;;;;;;5.10;3.38;;;;;;;;;;10388068;28;20037;-64
2023/10/29 20:04:58;;;;;;;5.88;3.00;;;;;;;;;;10392184;28;20044;-62
2023/10/29 20:10:00;;;;;;;5.43;2.90;;;;;;;;;;10406404;28;20030;-62
2023/10/29 20:15:03;;;;;;;7.15;2.78;;;;;;;;;;10379507;28;20034;-63
2023/10/29 20:20:06;;;;;;;4.65;2.90;;;;;;;;;;10399374;28;20037;-63
2023/10/29 20:25:08;;;;;;;4.18;2.95;;;;;;;;;;10384964;28;20057;-63
2023/10/29 20:30:11;;;;;;;6.15;3.10;;;;;;;;;;10401133;28;20030;-63
2023/10/29 20:35:13;;;;;;;6.28;3.00;;;;;;;;;;10388846;28;20606;-63
2023/10/29 20:40:16;;;;;;;4.97;2.90;;;;;;;;;;10411477;28;20029;-62
2023/10/29 20:45:18;;;;;;;6.28;2.88;;;;;;;;;;10390013;28;20048;-62
2023/10/29 20:50:20;;;;;;;6.32;2.88;;;;;;;;;;10400819;28;20032;-62
2023/10/29 20:55:22;;;;;;;6.55;3.33;;;;;;;;;;10403677;28;20034;-63
2023/10/29 21:00:26;;;;;;;5.47;2.90;;;;;;;;;;10393199;28;20042;-63
2023/10/29 21:05:28;;;;;;;8.35;3.00;;;;;;;;;;10391203;28;20145;-63
2023/10/29 21:10:31;;;;;;;8.52;3.00;;;;;;;;;;10383071;28;20045;-63
2023/10/29 21:15:37;;;;;;;7.43;2.78;;;;;;;;;;10390944;28;20036;-64
2023/10/29 21:20:40;;;;;;;4.43;2.60;;;;;;;;;;10394706;28;20093;-63
2023/10/29 21:25:42;;;;;;;3.28;2.53;;;;;;;;;;10382938;28;20088;-63
2023/10/29 21:30:43;;;;;;;4.00;2.70;;;;;;;;;;10379197;28;20575;-63
2023/10/29 21:35:45;;;;;;;4.80;2.97;;;;;;;;;;10390095;28;20034;-64
2023/10/29 21:40:46;;;;;;;3.63;2.53;;;;;;;;;;10401630;28;20091;-67
2023/10/29 21:45:47;;;;;;;3.75;2.80;;;;;;;;;;10384041;28;20543;-64
2023/10/29 21:51:14;;;;;;;4.35;2.55;;;;;;;;;;10385176;28;20026;-64
2023/10/29 21:56:14;;;;;;;4.82;2.80;;;;;;;;;;10391621;28;20049;-64
2023/10/29 22:01:21;;;;;;;5.70;2.75;;;;;;;;;;10396569;28;20539;-64
2023/10/29 22:06:22;;;;;;;3.83;2.40;;;;;;;;;;10375818;28;20456;-64
2023/10/29 22:11:22;;;;;;;2.65;2.33;;;;;;;;;;10395986;28;20030;-64
2023/10/29 22:16:23;;;;;;;5.32;2.47;;;;;;;;;;10376161;28;20088;-64
2023/10/29 22:21:23;;;;;;;4.15;2.55;;;;;;;;;;10373926;28;20034;-64
2023/10/29 22:26:24;;;;;;;5.97;2.88;;;;;;;;;;10391868;28;20397;-63
2023/10/29 22:31:24;;;;;;;5.63;2.88;;;;;;;;;;10381758;28;20042;-63
2023/10/29 22:36:25;;;;;;;6.13;2.72;;;;;;;;;;10395977;28;20030;-63
2023/10/29 22:41:26;;;;;;;3.50;2.58;;;;;;;;;;10393601;28;20038;-64
2023/10/29 22:46:26;;;;;;;4.13;2.92;;;;;;;;;;10407483;28;20049;-64
2023/10/29 22:51:27;;;;;;;8.20;3.45;;;;;;;;;;10410520;28;20499;-63
2023/10/29 22:56:27;;;;;;;7.88;3.38;;;;;;;;;;10413310;28;20502;-63
2023/10/29 23:01:28;;;;;;;7.85;3.40;;;;;;;;;;10410477;28;20034;-64
2023/10/29 23:06:29;;;;;;;8.75;3.22;;;;;;;;;;10408162;28;20385;-63
2023/10/29 23:11:29;;;;;;;7.85;4.15;;;;;;;;;;10398325;28;20034;-64
2023/10/29 23:16:30;;;;;;;8.52;3.70;;;;;;;;;;10402956;28;20030;-64
2023/10/29 23:21:30;;;;;;;4.10;3.70;;;;;;;;;;10402564;28;20029;-63
2023/10/29 23:26:31;;;;;;;7.85;4.13;;;;;;;;;;10395248;28;20026;-64
2023/10/29 23:31:32;;;;;;;6.13;4.40;;;;;;;;;;10395073;28;20092;-63
2023/10/29 23:36:32;;;;;;;9.23;4.25;;;;;;;;;;10405715;28;20511;-63
2023/10/29 23:41:33;;;;;;;5.82;4.00;;;;;;;;;;10407699;28;20041;-64
2023/10/29 23:46:33;;;;;;;8.63;5.25;;;;;;;;;;10402384;28;20037;-64
2023/10/29 23:51:34;;;;;;;5.95;4.70;;;;;;;;;;10407297;28;20033;-64
2023/10/29 23:56:35;;;;;;;6.45;4.32;;;;;;;;;;10409818;28;20038;-64
